Time;durP1;ratioP1;P1;durP2;ratioP2;P2;SDS_P1;SDS_P2;PMS_P1;PMS_P2;Temp;Humidity;BMP_temperature;BMP_pressure;BME280_temperature;BME280_humidity;BME280_pressure;Samples;Min_cycle;Max_cycle;Signal;HPM_P1;HPM_P2
2022/12/21 00:00:52;;;;;;;;;;;8.90;99.90;;;;;;5089326;28;20018;-73
2022/12/21 00:03:20;;;;;;;;;;;8.90;99.90;;;;;;5088877;28;19927;-73
2022/12/21 00:05:47;;;;;;;;;;;8.90;99.90;;;;;;5090102;28;20313;-73
2022/12/21 00:08:13;;;;;;;;;;;8.90;99.90;;;;;;5093545;28;19954;-74
2022/12/21 00:10:40;;;;;;;;;;;8.90;99.90;;;;;;5096684;28;19954;-73
2022/12/21 00:13:07;;;;;;;;;;;8.90;99.90;;;;;;5094793;28;19927;-73
2022/12/21 00:15:33;;;;;;;;;;;8.90;99.90;;;;;;5093673;28;20420;-73
2022/12/21 00:18:00;;;;;;;;;;;8.90;99.90;;;;;;5095292;28;20353;-73
2022/12/21 00:20:28;;;;;;;;;;;8.90;99.90;;;;;;5092424;28;20021;-72
2022/12/21 00:22:55;;;;;;;;;;;8.90;99.90;;;;;;5095739;28;21538;-72
2022/12/21 00:25:21;;;;;;;;;;;8.90;99.90;;;;;;5094552;28;20014;-72
2022/12/21 00:27:48;;;;;;;;;;;8.90;99.90;;;;;;5094575;28;20017;-72
2022/12/21 00:30:15;;;;;;;;;;;8.90;99.90;;;;;;5094952;28;20294;-72
2022/12/21 00:32:41;;;;;;;;;;;8.90;99.90;;;;;;5093607;28;20463;-72
2022/12/21 00:35:08;;;;;;;;;;;8.90;99.90;;;;;;5095699;28;20263;-73
2022/12/21 00:37:36;;;;;;;;;;;8.90;99.90;;;;;;5093830;28;19932;-73
2022/12/21 00:40:04;;;;;;;;;;;8.90;99.90;;;;;;5094928;28;19925;-73
2022/12/21 00:42:30;;;;;;;;;;;8.90;99.90;;;;;;5091887;28;19939;-73
2022/12/21 00:44:57;;;;;;;;;;;8.90;99.90;;;;;;5094084;28;20205;-72
2022/12/21 00:47:24;;;;;;;;;;;8.90;99.90;;;;;;5091261;28;19977;-72
2022/12/21 00:49:50;;;;;;;;;;;8.90;99.90;;;;;;5091757;28;20462;-73
2022/12/21 00:52:17;;;;;;;;;;;8.80;99.90;;;;;;5095848;28;20314;-72
2022/12/21 00:54:45;;;;;;;;;;;8.90;99.90;;;;;;5094566;28;20412;-72
2022/12/21 00:57:12;;;;;;;;;;;8.80;99.90;;;;;;5092948;28;19953;-72
2022/12/21 00:59:39;;;;;;;;;;;8.80;99.90;;;;;;5097322;28;19928;-73
2022/12/21 01:02:05;;;;;;;;;;;8.90;99.90;;;;;;5093143;28;19932;-73
2022/12/21 01:04:33;;;;;;;;;;;8.90;99.90;;;;;;5096216;28;20404;-73
2022/12/21 01:07:00;;;;;;;;;;;8.90;99.90;;;;;;5094853;28;19939;-73
2022/12/21 01:09:27;;;;;;;;;;;8.90;99.90;;;;;;5095830;28;19932;-73
2022/12/21 01:11:55;;;;;;;;;;;8.90;99.90;;;;;;5093512;28;19928;-72
2022/12/21 01:14:21;;;;;;;;;;;8.90;99.90;;;;;;5094134;28;20026;-72
2022/12/21 01:16:48;;;;;;;;;;;8.90;99.90;;;;;;5093856;28;19924;-72
2022/12/21 01:19:15;;;;;;;;;;;8.90;99.90;;;;;;5097247;28;20014;-73
2022/12/21 01:21:41;;;;;;;;;;;8.80;99.90;;;;;;5096923;28;19961;-73
2022/12/21 01:24:11;;;;;;;;;;;8.80;99.90;;;;;;5095669;28;19930;-73
2022/12/21 01:26:38;;;;;;;;;;;8.80;99.90;;;;;;5093906;28;20163;-74
2022/12/21 01:29:06;;;;;;;;;;;8.70;99.90;;;;;;5094765;28;20400;-74
2022/12/21 01:31:33;;;;;;;;;;;8.70;99.90;;;;;;5089570;28;19935;-74
2022/12/21 01:33:59;;;;;;;;;;;8.70;99.90;;;;;;5093673;28;19927;-74
2022/12/21 01:36:26;;;;;;;;;;;8.60;99.90;;;;;;5094335;28;19960;-73
2022/12/21 01:38:53;;;;;;;;;;;8.60;99.90;;;;;;5096819;28;20367;-73
2022/12/21 01:41:22;;;;;;;;;;;8.60;99.90;;;;;;5093467;28;20065;-74
2022/12/21 01:43:49;;;;;;;;;;;8.50;99.90;;;;;;5093816;28;19936;-73
2022/12/21 01:46:28;;;;;;;;;;;8.50;99.90;;;;;;5095142;28;20026;-73
2022/12/21 01:48:59;;;;;;;;;;;8.50;99.90;;;;;;5094189;28;19924;-73
2022/12/21 01:51:26;;;;;;;;;;;8.50;99.90;;;;;;5104598;28;19924;-73
2022/12/21 01:53:55;;;;;;;;;;;8.50;99.90;;;;;;5114069;28;20010;-73
2022/12/21 01:56:24;;;;;;;;;;;8.50;99.90;;;;;;5114634;28;19930;-73
2022/12/21 01:58:51;;;;;;;;;;;8.50;99.90;;;;;;5107092;28;19956;-72
2022/12/21 02:01:17;;;;;;;;;;;8.50;99.90;;;;;;5100307;28;20006;-73
2022/12/21 02:03:47;;;;;;;;;;;8.50;99.90;;;;;;5114741;28;19924;-74
2022/12/21 02:06:17;;;;;;;;;;;8.50;99.90;;;;;;5114869;28;19923;-73
2022/12/21 02:08:44;;;;;;;;;;;8.50;99.90;;;;;;5113677;28;19946;-74
2022/12/21 02:11:11;;;;;;;;;;;8.50;99.90;;;;;;5113910;28;19931;-72
2022/12/21 02:13:40;;;;;;;;;;;8.40;99.90;;;;;;5114118;28;19923;-74
2022/12/21 02:16:13;;;;;;;;;;;8.40;99.90;;;;;;5104569;28;20325;-73
2022/12/21 02:18:50;;;;;;;;;;;8.40;99.90;;;;;;5102398;28;19924;-74
2022/12/21 02:21:24;;;;;;;;;;;8.40;99.90;;;;;;5111485;28;20014;-72
2022/12/21 02:24:18;;;;;;;;;;;8.40;99.90;;;;;;5114312;28;19927;-72
2022/12/21 02:27:02;;;;;;;;;;;8.40;99.90;;;;;;5114474;28;19923;-72
2022/12/21 02:29:37;;;;;;;;;;;8.40;99.90;;;;;;5092623;28;19924;-73
2022/12/21 02:32:10;;;;;;;;;;;8.40;99.90;;;;;;5113012;28;19931;-74
2022/12/21 02:34:42;;;;;;;;;;;8.40;99.90;;;;;;5094292;28;19935;-73
2022/12/21 02:37:14;;;;;;;;;;;8.40;99.90;;;;;;5098918;28;19977;-73
2022/12/21 02:39:46;;;;;;;;;;;8.40;99.90;;;;;;5093785;28;19967;-74
2022/12/21 02:44:12;;;;;;;;;;;8.40;99.90;;;;;;5093585;28;19981;-73
2022/12/21 02:45:09;;;;;;;;;;;8.40;99.90;;;;;;5093778;28;20282;-73
2022/12/21 02:47:39;;;;;;;;;;;8.40;99.90;;;;;;5093690;28;19927;-73
2022/12/21 02:50:08;;;;;;;;;;;8.40;99.90;;;;;;5093351;28;20015;-73
2022/12/21 02:52:37;;;;;;;;;;;8.40;99.90;;;;;;5100679;28;19931;-73
2022/12/21 02:55:04;;;;;;;;;;;8.50;99.90;;;;;;5113685;28;20305;-73
2022/12/21 02:57:31;;;;;;;;;;;8.40;99.90;;;;;;5113681;28;19931;-72
2022/12/21 02:59:59;;;;;;;;;;;8.40;99.90;;;;;;5108932;28;20036;-73
2022/12/21 03:02:45;;;;;;;;;;;8.40;99.90;;;;;;5113851;28;19923;-72
2022/12/21 03:05:22;;;;;;;;;;;8.30;99.90;;;;;;5103653;28;19934;-73
2022/12/21 03:07:55;;;;;;;;;;;8.30;99.90;;;;;;5096745;28;19924;-73
2022/12/21 03:10:30;;;;;;;;;;;8.30;99.90;;;;;;5102932;28;19928;-73
2022/12/21 03:13:00;;;;;;;;;;;8.30;99.90;;;;;;5099245;28;19946;-73
2022/12/21 03:15:30;;;;;;;;;;;8.30;99.90;;;;;;5113434;28;19930;-74
2022/12/21 03:18:01;;;;;;;;;;;8.30;99.90;;;;;;5101433;28;19924;-72
2022/12/21 03:20:29;;;;;;;;;;;8.30;99.90;;;;;;5101824;28;20440;-72
2022/12/21 03:22:57;;;;;;;;;;;8.30;99.90;;;;;;5112891;28;19931;-72
2022/12/21 03:25:27;;;;;;;;;;;8.30;99.90;;;;;;5096535;28;19924;-73
2022/12/21 03:27:55;;;;;;;;;;;8.20;99.90;;;;;;5106932;28;20014;-73
2022/12/21 03:30:24;;;;;;;;;;;8.20;99.90;;;;;;5113853;28;19998;-73
2022/12/21 03:32:53;;;;;;;;;;;8.20;99.90;;;;;;5113243;28;20014;-73
2022/12/21 03:35:24;;;;;;;;;;;8.20;99.90;;;;;;5113219;28;20297;-73
2022/12/21 03:37:51;;;;;;;;;;;8.20;99.90;;;;;;5112876;28;19930;-73
2022/12/21 03:40:20;;;;;;;;;;;8.20;99.90;;;;;;5110147;28;20285;-73
2022/12/21 03:42:48;;;;;;;;;;;8.20;99.90;;;;;;5098193;28;19924;-72
2022/12/21 03:45:18;;;;;;;;;;;8.20;99.90;;;;;;5119285;27;19930;-73
2022/12/21 03:47:46;;;;;;;;;;;8.20;99.90;;;;;;5120093;27;19923;-73
2022/12/21 03:50:14;;;;;;;;;;;8.20;99.90;;;;;;5119465;27;19927;-74
2022/12/21 03:52:45;;;;;;;;;;;8.20;99.90;;;;;;5103077;27;20026;-73
2022/12/21 03:55:13;;;;;;;;;;;8.10;99.90;;;;;;5099149;28;19946;-73
2022/12/21 03:57:40;;;;;;;;;;;8.20;99.90;;;;;;5105983;28;20371;-73
2022/12/21 04:00:10;;;;;;;;;;;8.20;99.90;;;;;;5118197;27;19930;-74
2022/12/21 04:02:38;;;;;;;;;;;8.20;99.90;;;;;;5120251;28;19924;-72
2022/12/21 04:05:09;;;;;;;;;;;8.20;99.90;;;;;;5119866;27;19934;-73
2022/12/21 04:07:38;;;;;;;;;;;8.20;99.90;;;;;;5119283;27;19924;-73
2022/12/21 04:10:08;;;;;;;;;;;8.20;99.90;;;;;;5114437;27;20114;-73
2022/12/21 04:12:36;;;;;;;;;;;8.20;99.90;;;;;;5098719;28;19928;-73
2022/12/21 04:15:03;;;;;;;;;;;8.20;99.90;;;;;;5108161;28;19924;-72
2022/12/21 04:17:29;;;;;;;;;;;8.20;99.90;;;;;;5112120;27;20405;-72
2022/12/21 04:19:58;;;;;;;;;;;8.20;99.90;;;;;;5099252;28;20446;-72
2022/12/21 04:28:10;;;;;;;;;;;8.20;99.90;;;;;;5119330;28;19931;-73
2022/12/21 04:30:38;;;;;;;;;;;8.20;99.90;;;;;;5120066;27;19931;-73
2022/12/21 04:33:05;;;;;;;;;;;8.10;99.90;;;;;;5103607;27;19931;-72
2022/12/21 04:35:31;;;;;;;;;;;8.10;99.90;;;;;;5108389;27;19923;-72
2022/12/21 04:37:57;;;;;;;;;;;8.10;99.90;;;;;;5119441;27;20014;-72
2022/12/21 04:40:26;;;;;;;;;;;8.10;99.90;;;;;;5112182;27;19948;-72
2022/12/21 04:42:52;;;;;;;;;;;8.10;99.90;;;;;;5098468;28;19971;-72
2022/12/21 04:45:19;;;;;;;;;;;8.10;99.90;;;;;;5098501;28;20054;-72
2022/12/21 04:47:45;;;;;;;;;;;8.10;99.90;;;;;;5098181;28;19998;-72
2022/12/21 04:50:12;;;;;;;;;;;8.10;99.90;;;;;;5117188;28;19924;-72
2022/12/21 04:52:39;;;;;;;;;;;8.10;99.90;;;;;;5102495;27;19924;-72
2022/12/21 04:55:06;;;;;;;;;;;8.10;99.90;;;;;;5095006;28;20019;-72
2022/12/21 04:57:34;;;;;;;;;;;8.00;99.90;;;;;;5095256;28;20026;-73
2022/12/21 05:00:01;;;;;;;;;;;8.00;99.90;;;;;;5095348;28;19924;-73
2022/12/21 05:02:28;;;;;;;;;;;8.00;99.90;;;;;;5096052;28;20409;-72
2022/12/21 05:04:55;;;;;;;;;;;8.00;99.90;;;;;;5095985;28;19924;-72
2022/12/21 05:07:21;;;;;;;;;;;8.00;99.90;;;;;;5097570;28;19924;-72
2022/12/21 05:09:48;;;;;;;;;;;8.00;99.90;;;;;;5105521;28;19978;-72
2022/12/21 05:12:15;;;;;;;;;;;8.00;99.90;;;;;;5095043;28;19931;-71
2022/12/21 05:14:43;;;;;;;;;;;8.00;99.90;;;;;;5095291;28;20374;-71
2022/12/21 05:17:10;;;;;;;;;;;8.00;99.90;;;;;;5095581;28;20008;-72
2022/12/21 05:19:36;;;;;;;;;;;8.00;99.90;;;;;;5113922;28;19963;-74
2022/12/21 05:22:03;;;;;;;;;;;8.00;99.90;;;;;;5114940;28;20030;-72
2022/12/21 05:24:30;;;;;;;;;;;8.00;99.90;;;;;;5095014;28;20022;-73
2022/12/21 05:26:56;;;;;;;;;;;8.00;99.90;;;;;;5105888;28;19924;-72
2022/12/21 05:29:23;;;;;;;;;;;8.00;99.90;;;;;;5115512;28;19959;-72
2022/12/21 05:31:51;;;;;;;;;;;7.90;99.90;;;;;;5115641;28;20020;-73
2022/12/21 05:34:18;;;;;;;;;;;8.00;99.90;;;;;;5100301;28;20383;-73
2022/12/21 05:36:44;;;;;;;;;;;7.90;99.90;;;;;;5094914;28;20083;-73
2022/12/21 05:39:11;;;;;;;;;;;7.90;99.90;;;;;;5094346;28;19928;-71
2022/12/21 05:41:38;;;;;;;;;;;7.90;99.90;;;;;;5094775;28;19924;-73
2022/12/21 05:44:05;;;;;;;;;;;7.90;99.90;;;;;;5095035;28;19930;-72
2022/12/21 05:46:32;;;;;;;;;;;8.00;99.90;;;;;;5094634;28;19924;-72
2022/12/21 05:49:00;;;;;;;;;;;8.00;99.90;;;;;;5094852;28;20015;-72
2022/12/21 05:51:27;;;;;;;;;;;8.00;99.90;;;;;;5094668;28;19930;-73
2022/12/21 05:53:54;;;;;;;;;;;7.90;99.90;;;;;;5110708;28;20306;-72
2022/12/21 05:56:21;;;;;;;;;;;7.90;99.90;;;;;;5096508;28;19990;-74
2022/12/21 05:58:47;;;;;;;;;;;7.90;99.90;;;;;;5094882;28;20336;-73
2022/12/21 06:01:14;;;;;;;;;;;7.90;99.90;;;;;;5094610;28;20019;-72
2022/12/21 06:03:41;;;;;;;;;;;7.90;99.90;;;;;;5094514;28;20026;-71
2022/12/21 06:06:10;;;;;;;;;;;7.90;99.90;;;;;;5092927;28;19931;-72
2022/12/21 06:08:37;;;;;;;;;;;7.80;99.90;;;;;;5094126;28;19924;-72
2022/12/21 06:11:05;;;;;;;;;;;7.80;99.90;;;;;;5109003;28;19927;-73
2022/12/21 06:13:31;;;;;;;;;;;7.80;99.90;;;;;;5109556;28;19947;-72
2022/12/21 06:16:01;;;;;;;;;;;7.70;99.90;;;;;;5094872;28;19930;-72
2022/12/21 06:18:28;;;;;;;;;;;7.70;99.90;;;;;;5094281;28;19924;-72
2022/12/21 06:20:54;;;;;;;;;;;7.60;99.90;;;;;;5093633;28;20400;-71
2022/12/21 06:23:22;;;;;;;;;;;7.60;99.90;;;;;;5094069;28;19953;-73
2022/12/21 06:25:49;;;;;;;;;;;7.60;99.90;;;;;;5106385;28;19924;-72
2022/12/21 06:28:16;;;;;;;;;;;7.60;99.90;;;;;;5105989;28;19924;-74
2022/12/21 06:30:42;;;;;;;;;;;7.60;99.90;;;;;;5098982;28;19959;-74
2022/12/21 06:33:09;;;;;;;;;;;7.60;99.90;;;;;;5109023;28;19959;-74
2022/12/21 06:35:36;;;;;;;;;;;7.60;99.90;;;;;;5093405;28;19924;-73
2022/12/21 06:38:02;;;;;;;;;;;7.60;99.90;;;;;;5096639;28;20378;-73
2022/12/21 06:40:30;;;;;;;;;;;7.60;99.90;;;;;;5108453;28;20374;-72
2022/12/21 06:42:57;;;;;;;;;;;7.60;99.90;;;;;;5111107;28;19924;-72
2022/12/21 06:45:24;;;;;;;;;;;7.60;99.90;;;;;;5103920;28;19966;-72
2022/12/21 06:47:52;;;;;;;;;;;7.60;99.90;;;;;;5097380;28;19960;-73
2022/12/21 06:50:19;;;;;;;;;;;7.60;99.90;;;;;;5098730;28;19962;-73
2022/12/21 06:52:47;;;;;;;;;;;7.60;99.90;;;;;;5103589;28;19971;-73
2022/12/21 06:55:14;;;;;;;;;;;7.50;99.90;;;;;;5093277;28;20006;-73
2022/12/21 06:57:42;;;;;;;;;;;7.60;99.90;;;;;;5102656;28;20023;-73
2022/12/21 07:00:10;;;;;;;;;;;7.60;99.90;;;;;;5100089;28;20006;-73
2022/12/21 07:02:36;;;;;;;;;;;7.70;99.90;;;;;;5095093;28;19931;-72
2022/12/21 07:05:03;;;;;;;;;;;7.70;99.90;;;;;;5092734;28;19970;-72
2022/12/21 07:07:30;;;;;;;;;;;7.70;99.90;;;;;;5092973;28;19967;-73
2022/12/21 07:09:57;;;;;;;;;;;7.70;99.90;;;;;;5099743;28;20011;-73
2022/12/21 07:12:23;;;;;;;;;;;7.80;99.90;;;;;;5106319;28;20018;-73
2022/12/21 07:14:52;;;;;;;;;;;7.80;99.90;;;;;;5105534;28;19924;-72
2022/12/21 07:17:19;;;;;;;;;;;7.80;99.90;;;;;;5108579;28;20352;-73
2022/12/21 07:19:45;;;;;;;;;;;7.80;99.90;;;;;;5106683;28;20281;-73
2022/12/21 07:22:12;;;;;;;;;;;7.90;99.90;;;;;;5107175;28;19934;-66
2022/12/21 07:24:39;;;;;;;;;;;7.90;99.90;;;;;;5102884;28;19924;-67
2022/12/21 07:27:05;;;;;;;;;;;7.90;99.90;;;;;;5102643;28;19924;-66
2022/12/21 07:29:32;;;;;;;;;;;7.90;99.90;;;;;;5099661;28;19923;-67
2022/12/21 07:32:00;;;;;;;;;;;7.90;99.90;;;;;;5111246;28;19930;-67
2022/12/21 07:34:27;;;;;;;;;;;7.90;99.90;;;;;;5112145;28;19977;-73
2022/12/21 07:36:54;;;;;;;;;;;7.90;99.90;;;;;;5110360;28;19946;-73
2022/12/21 07:39:20;;;;;;;;;;;7.80;99.90;;;;;;5110406;28;19924;-74
2022/12/21 07:41:47;;;;;;;;;;;7.80;99.90;;;;;;5100030;28;19924;-73
2022/12/21 07:44:14;;;;;;;;;;;7.80;99.90;;;;;;5101912;28;19938;-74
2022/12/21 07:46:40;;;;;;;;;;;7.80;99.90;;;;;;5104407;28;19924;-73
2022/12/21 07:49:08;;;;;;;;;;;7.80;99.90;;;;;;5093986;28;19932;-74
2022/12/21 07:51:35;;;;;;;;;;;7.80;99.90;;;;;;5109744;28;19977;-74
2022/12/21 07:54:02;;;;;;;;;;;7.70;99.90;;;;;;5106965;28;20047;-71
2022/12/21 07:56:29;;;;;;;;;;;7.70;99.90;;;;;;5109272;28;19931;-73
2022/12/21 07:58:56;;;;;;;;;;;7.70;99.90;;;;;;5099785;28;19932;-74
2022/12/21 08:01:26;;;;;;;;;;;7.60;99.90;;;;;;5102391;28;20507;-74
2022/12/21 08:03:53;;;;;;;;;;;7.70;99.90;;;;;;5108113;28;19923;-74
2022/12/21 08:06:22;;;;;;;;;;;7.70;99.90;;;;;;5097135;28;19924;-73
2022/12/21 08:08:48;;;;;;;;;;;7.70;99.90;;;;;;5105418;28;19993;-74
2022/12/21 08:11:19;;;;;;;;;;;7.70;99.90;;;;;;5098875;28;19928;-74
2022/12/21 08:13:46;;;;;;;;;;;7.80;99.90;;;;;;5095312;28;19931;-74
2022/12/21 08:16:13;;;;;;;;;;;7.80;99.90;;;;;;5098166;28;19928;-74
2022/12/21 08:18:40;;;;;;;;;;;7.80;99.90;;;;;;5089818;28;19924;-72
2022/12/21 08:21:07;;;;;;;;;;;7.80;99.90;;;;;;5097668;28;20031;-73
2022/12/21 08:23:36;;;;;;;;;;;7.80;99.90;;;;;;5102458;28;19963;-74
2022/12/21 08:26:03;;;;;;;;;;;7.80;99.90;;;;;;5105162;28;19974;-74
2022/12/21 08:28:30;;;;;;;;;;;7.70;99.90;;;;;;5098142;28;20027;-74
2022/12/21 08:31:00;;;;;;;;;;;7.70;99.90;;;;;;5113536;28;20022;-71
2022/12/21 08:33:27;;;;;;;;;;;7.70;99.90;;;;;;5104831;28;20242;-74
2022/12/21 08:35:54;;;;;;;;;;;7.80;99.90;;;;;;5113883;28;20309;-75
2022/12/21 08:38:20;;;;;;;;;;;7.80;99.90;;;;;;5108207;28;19974;-73
2022/12/21 08:40:48;;;;;;;;;;;7.80;99.90;;;;;;5104083;28;20410;-73
2022/12/21 08:43:16;;;;;;;;;;;7.80;99.90;;;;;;5099821;28;20015;-74
2022/12/21 08:45:43;;;;;;;;;;;7.80;99.90;;;;;;5103084;28;19928;-73
2022/12/21 08:48:10;;;;;;;;;;;7.80;99.90;;;;;;5111322;28;20409;-74
2022/12/21 08:50:37;;;;;;;;;;;7.80;99.90;;;;;;5103839;28;20409;-75
2022/12/21 08:53:04;;;;;;;;;;;7.80;99.90;;;;;;5103521;27;19946;-74
2022/12/21 08:55:30;;;;;;;;;;;7.80;99.90;;;;;;5099906;28;19924;-70
2022/12/21 08:57:58;;;;;;;;;;;7.80;99.90;;;;;;5099171;28;19970;-73
2022/12/21 09:00:25;;;;;;;;;;;7.90;99.90;;;;;;5110945;28;19938;-73
2022/12/21 09:02:52;;;;;;;;;;;7.90;99.90;;;;;;5107738;28;20015;-74
2022/12/21 09:05:18;;;;;;;;;;;7.90;99.90;;;;;;5106628;28;19975;-72
2022/12/21 09:07:45;;;;;;;;;;;7.90;99.90;;;;;;5110305;28;20368;-72
2022/12/21 09:10:12;;;;;;;;;;;7.90;99.90;;;;;;5113307;28;20389;-72
2022/12/21 09:12:38;;;;;;;;;;;8.00;99.90;;;;;;5109352;28;19932;-75
2022/12/21 09:15:07;;;;;;;;;;;8.00;99.90;;;;;;5111644;28;20290;-78
2022/12/21 09:17:34;;;;;;;;;;;8.10;99.90;;;;;;5110379;28;19924;-74
2022/12/21 09:20:01;;;;;;;;;;;8.10;99.90;;;;;;5109705;28;20382;-75
2022/12/21 09:22:28;;;;;;;;;;;8.20;99.90;;;;;;5104880;28;20345;-74
2022/12/21 09:24:54;;;;;;;;;;;8.30;99.90;;;;;;5110782;28;19984;-75
2022/12/21 09:27:21;;;;;;;;;;;8.30;99.90;;;;;;5113390;28;19959;-75
2022/12/21 09:29:48;;;;;;;;;;;8.30;99.90;;;;;;5115511;28;20003;-76
2022/12/21 09:32:16;;;;;;;;;;;8.30;99.90;;;;;;5107704;28;19930;-76
2022/12/21 09:34:43;;;;;;;;;;;8.30;99.90;;;;;;5109125;28;20332;-74
2022/12/21 09:37:09;;;;;;;;;;;8.30;99.90;;;;;;5114378;28;19924;-73
2022/12/21 09:39:37;;;;;;;;;;;8.30;99.90;;;;;;5107872;28;19936;-73
2022/12/21 09:42:09;;;;;;;;;;;8.30;99.90;;;;;;5103236;28;19924;-74
2022/12/21 09:44:50;;;;;;;;;;;8.40;99.90;;;;;;5104648;28;19928;-74
2022/12/21 09:47:21;;;;;;;;;;;8.40;99.90;;;;;;5096585;28;20333;-75
2022/12/21 09:49:51;;;;;;;;;;;8.40;99.90;;;;;;5115427;27;20015;-74
2022/12/21 09:52:21;;;;;;;;;;;8.50;99.90;;;;;;5109048;28;19924;-72
2022/12/21 09:54:54;;;;;;;;;;;8.50;99.90;;;;;;5106008;28;19924;-74
2022/12/21 09:57:20;;;;;;;;;;;8.50;99.90;;;;;;5102765;28;19924;-73
2022/12/21 09:59:47;;;;;;;;;;;8.50;99.90;;;;;;5104973;28;19967;-71
2022/12/21 10:02:21;;;;;;;;;;;8.60;99.90;;;;;;5112357;28;19934;-71
2022/12/21 10:04:59;;;;;;;;;;;8.60;99.90;;;;;;5114215;28;20640;-72
2022/12/21 10:07:40;;;;;;;;;;;8.70;99.90;;;;;;5113143;28;20011;-74
2022/12/21 10:10:11;;;;;;;;;;;8.70;99.90;;;;;;5100502;28;20394;-74
2022/12/21 10:12:42;;;;;;;;;;;8.80;99.90;;;;;;5105301;28;19931;-74
2022/12/21 10:15:16;;;;;;;;;;;8.80;99.90;;;;;;5106363;28;19946;-74
2022/12/21 10:17:50;;;;;;;;;;;8.80;99.90;;;;;;5105782;28;19959;-74
2022/12/21 10:20:25;;;;;;;;;;;8.90;99.90;;;;;;5106428;27;19924;-70
2022/12/21 10:22:53;;;;;;;;;;;8.90;99.90;;;;;;5111320;27;20014;-70
2022/12/21 10:25:22;;;;;;;;;;;8.90;99.90;;;;;;5103133;28;20390;-70
2022/12/21 10:27:51;;;;;;;;;;;8.90;99.90;;;;;;5101556;28;20003;-70
2022/12/21 10:30:18;;;;;;;;;;;8.90;99.90;;;;;;5102435;28;19930;-71
2022/12/21 10:35:50;;;;;;;;;;;8.80;99.90;;;;;;5109259;28;19931;-70
2022/12/21 10:38:19;;;;;;;;;;;8.70;99.90;;;;;;5100519;28;19931;-70
2022/12/21 10:40:48;;;;;;;;;;;8.70;99.90;;;;;;5108957;28;19973;-71
2022/12/21 10:43:15;;;;;;;;;;;8.70;99.90;;;;;;5112043;28;19923;-70
2022/12/21 10:45:41;;;;;;;;;;;8.70;99.90;;;;;;5105409;28;19933;-74
2022/12/21 10:48:08;;;;;;;;;;;8.70;99.90;;;;;;5099296;28;20026;-69
2022/12/21 10:50:38;;;;;;;;;;;8.70;99.90;;;;;;5107666;28;19924;-70
2022/12/21 10:53:19;;;;;;;;;;;8.70;99.90;;;;;;5108598;28;19977;-68
2022/12/21 10:55:46;;;;;;;;;;;8.70;99.90;;;;;;5110606;28;19923;-74
2022/12/21 10:58:16;;;;;;;;;;;8.70;99.90;;;;;;5110359;28;20014;-75
2022/12/21 11:00:50;;;;;;;;;;;8.70;99.90;;;;;;5112097;28;19923;-75
2022/12/21 11:03:23;;;;;;;;;;;8.70;99.90;;;;;;5098545;28;19930;-74
2022/12/21 11:05:50;;;;;;;;;;;8.70;99.90;;;;;;5105167;28;19931;-75
2022/12/21 11:08:20;;;;;;;;;;;8.70;99.90;;;;;;5095587;28;19946;-74
2022/12/21 11:10:47;;;;;;;;;;;8.70;99.90;;;;;;5102532;28;19927;-74
2022/12/21 11:13:15;;;;;;;;;;;8.70;99.90;;;;;;5114314;27;20310;-75
2022/12/21 11:15:51;;;;;;;;;;;8.70;99.90;;;;;;5100017;27;19924;-76
2022/12/21 11:18:48;;;;;;;;;;;8.70;99.90;;;;;;5108335;28;19939;-75
2022/12/21 11:21:26;;;;;;;;;;;8.80;99.90;;;;;;5079557;28;19936;-74
2022/12/21 11:23:58;;;;;;;;;;;8.70;99.90;;;;;;5107066;28;19924;-75
2022/12/21 11:26:27;;;;;;;;;;;8.80;99.90;;;;;;5107944;28;20014;-75
2022/12/21 11:28:59;;;;;;;;;;;8.80;99.90;;;;;;5101741;28;19931;-74
2022/12/21 11:31:29;;;;;;;;;;;8.80;99.90;;;;;;5106858;28;20045;-74
2022/12/21 11:33:55;;;;;;;;;;;8.90;99.90;;;;;;5100114;28;19924;-76
2022/12/21 11:36:22;;;;;;;;;;;8.90;99.90;;;;;;5106105;28;20004;-75
2022/12/21 11:38:49;;;;;;;;;;;8.80;99.90;;;;;;5096562;28;20340;-75
2022/12/21 11:41:21;;;;;;;;;;;8.90;99.90;;;;;;5103589;28;20037;-75
2022/12/21 11:43:49;;;;;;;;;;;8.90;99.90;;;;;;5105390;28;19923;-75
2022/12/21 11:46:20;;;;;;;;;;;8.80;99.90;;;;;;5094347;28;19931;-74
2022/12/21 11:48:51;;;;;;;;;;;8.80;99.90;;;;;;5100935;28;20250;-76
2022/12/21 11:51:23;;;;;;;;;;;8.80;99.90;;;;;;5103717;28;20018;-75
2022/12/21 11:54:09;;;;;;;;;;;8.90;99.90;;;;;;5101797;28;20014;-75
2022/12/21 11:56:40;;;;;;;;;;;8.90;99.90;;;;;;5105929;28;20282;-75
2022/12/21 11:59:19;;;;;;;;;;;8.90;99.90;;;;;;5101917;28;19924;-75
2022/12/21 12:01:51;;;;;;;;;;;8.90;99.90;;;;;;5090390;28;19963;-74
2022/12/21 12:04:26;;;;;;;;;;;8.90;99.90;;;;;;5095555;28;20003;-75
2022/12/21 12:07:03;;;;;;;;;;;8.90;99.90;;;;;;5101439;28;19924;-76
2022/12/21 12:09:38;;;;;;;;;;;8.90;99.90;;;;;;5106492;28;19928;-74
2022/12/21 12:12:10;;;;;;;;;;;8.90;99.90;;;;;;5115552;28;20041;-73
2022/12/21 12:14:56;;;;;;;;;;;8.90;99.90;;;;;;5099443;28;19927;-76
2022/12/21 12:17:28;;;;;;;;;;;8.90;99.90;;;;;;5096067;28;19924;-76
2022/12/21 12:19:58;;;;;;;;;;;8.90;99.90;;;;;;5100377;28;19978;-74
2022/12/21 12:22:35;;;;;;;;;;;8.90;99.90;;;;;;5095844;28;19924;-75
2022/12/21 12:25:20;;;;;;;;;;;8.90;99.90;;;;;;5112666;28;19924;-74
2022/12/21 12:27:56;;;;;;;;;;;8.90;99.90;;;;;;5112183;28;19978;-74
2022/12/21 12:30:23;;;;;;;;;;;8.90;99.90;;;;;;5108719;27;19973;-74
2022/12/21 12:33:04;;;;;;;;;;;8.80;99.90;;;;;;5116097;27;19924;-74
2022/12/21 12:35:44;;;;;;;;;;;8.90;99.90;;;;;;5115871;28;19924;-72
2022/12/21 12:38:14;;;;;;;;;;;8.90;99.90;;;;;;5111696;28;19931;-74
2022/12/21 12:40:47;;;;;;;;;;;8.90;99.90;;;;;;5113066;28;19924;-74
2022/12/21 12:43:19;;;;;;;;;;;9.00;99.90;;;;;;5099490;28;19924;-74
2022/12/21 12:45:52;;;;;;;;;;;9.00;99.90;;;;;;5105394;28;19963;-74
2022/12/21 12:48:22;;;;;;;;;;;9.00;99.90;;;;;;5109065;28;20903;-74
2022/12/21 12:50:52;;;;;;;;;;;9.00;99.90;;;;;;5114722;28;20339;-75
2022/12/21 12:53:25;;;;;;;;;;;9.10;99.90;;;;;;5115206;28;19967;-75
2022/12/21 12:55:58;;;;;;;;;;;9.20;99.90;;;;;;5107794;28;19963;-75
2022/12/21 12:58:30;;;;;;;;;;;9.30;99.90;;;;;;5114353;28;20416;-76
2022/12/21 13:01:01;;;;;;;;;;;9.30;99.90;;;;;;5104514;28;20023;-74
2022/12/21 13:03:35;;;;;;;;;;;9.40;99.90;;;;;;5101642;28;20018;-75
2022/12/21 13:06:08;;;;;;;;;;;9.50;99.90;;;;;;5101849;28;20011;-76
2022/12/21 13:08:42;;;;;;;;;;;9.40;99.90;;;;;;5113906;28;19934;-75
2022/12/21 13:11:16;;;;;;;;;;;9.30;99.90;;;;;;5109191;28;21244;-76
2022/12/21 13:13:47;;;;;;;;;;;9.20;99.90;;;;;;5113528;28;19924;-74
2022/12/21 13:16:18;;;;;;;;;;;9.20;99.90;;;;;;5111084;28;19924;-76
2022/12/21 13:18:47;;;;;;;;;;;9.20;99.90;;;;;;5115393;28;19969;-75
2022/12/21 13:21:15;;;;;;;;;;;9.20;99.90;;;;;;5108287;28;20016;-75
2022/12/21 13:23:45;;;;;;;;;;;9.10;99.90;;;;;;5109660;28;19930;-75
2022/12/21 13:26:12;;;;;;;;;;;9.10;99.90;;;;;;5100156;28;20416;-75
2022/12/21 13:28:46;;;;;;;;;;;9.20;99.90;;;;;;5094831;28;20370;-74
2022/12/21 13:31:14;;;;;;;;;;;9.20;99.90;;;;;;5111393;28;20382;-74
2022/12/21 13:33:45;;;;;;;;;;;9.10;99.90;;;;;;5114777;28;19928;-77
2022/12/21 13:36:13;;;;;;;;;;;9.20;99.90;;;;;;5108409;28;20470;-75
2022/12/21 13:38:41;;;;;;;;;;;9.20;99.90;;;;;;5110209;28;20007;-75
2022/12/21 13:41:10;;;;;;;;;;;9.10;99.90;;;;;;5105748;28;20374;-76
2022/12/21 13:43:41;;;;;;;;;;;9.20;99.90;;;;;;5110565;28;20028;-76
2022/12/21 13:46:08;;;;;;;;;;;9.20;99.90;;;;;;5093809;28;20015;-74
2022/12/21 13:48:39;;;;;;;;;;;9.20;99.90;;;;;;5106332;28;20019;-75
2022/12/21 13:51:17;;;;;;;;;;;9.20;99.90;;;;;;5103258;28;19924;-76
2022/12/21 13:53:47;;;;;;;;;;;9.20;99.90;;;;;;5094566;28;20011;-75
2022/12/21 13:56:18;;;;;;;;;;;9.30;99.90;;;;;;5100130;28;19993;-74
2022/12/21 13:58:48;;;;;;;;;;;9.20;99.90;;;;;;5097399;28;20378;-74
2022/12/21 14:01:18;;;;;;;;;;;9.20;99.90;;;;;;5102975;28;20448;-74
2022/12/21 14:03:49;;;;;;;;;;;9.30;99.90;;;;;;5114311;28;19963;-75
2022/12/21 14:06:40;;;;;;;;;;;9.30;99.90;;;;;;5104507;28;20006;-74
2022/12/21 14:09:13;;;;;;;;;;;9.20;99.90;;;;;;5083122;28;20018;-74
2022/12/21 14:11:50;;;;;;;;;;;9.20;99.90;;;;;;5110482;28;19924;-74
2022/12/21 14:14:41;;;;;;;;;;;9.30;99.90;;;;;;5107996;28;20015;-75
2022/12/21 14:17:15;;;;;;;;;;;9.30;99.90;;;;;;5089319;28;19926;-76
2022/12/21 14:19:50;;;;;;;;;;;9.20;99.90;;;;;;5106928;28;20010;-76
2022/12/21 14:22:37;;;;;;;;;;;9.30;99.90;;;;;;5106378;27;19924;-75
2022/12/21 14:25:08;;;;;;;;;;;9.30;99.90;;;;;;5108337;28;20463;-73
2022/12/21 14:27:35;;;;;;;;;;;9.20;99.90;;;;;;5099255;28;19928;-75
2022/12/21 14:30:14;;;;;;;;;;;9.20;99.90;;;;;;5104499;28;20054;-75
2022/12/21 14:32:41;;;;;;;;;;;9.20;99.90;;;;;;5111032;28;19931;-75
2022/12/21 14:35:23;;;;;;;;;;;9.20;99.90;;;;;;5109697;28;19934;-75
2022/12/21 14:38:05;;;;;;;;;;;9.20;99.90;;;;;;5096313;28;20268;-75
2022/12/21 14:40:51;;;;;;;;;;;9.20;99.90;;;;;;5104542;28;19967;-74
2022/12/21 14:43:18;;;;;;;;;;;9.20;99.90;;;;;;5103380;28;19924;-74
2022/12/21 14:45:46;;;;;;;;;;;9.20;99.90;;;;;;5107239;28;20019;-73
2022/12/21 14:48:37;;;;;;;;;;;9.20;99.90;;;;;;5105169;28;19971;-73
2022/12/21 14:51:05;;;;;;;;;;;9.20;99.90;;;;;;5108828;28;20007;-74
2022/12/21 14:53:34;;;;;;;;;;;9.20;99.90;;;;;;5111758;28;19924;-74